createdAt,value
2019-04-20T00:00:01.661Z,90.4097
2019-04-20T00:00:09.971Z,90.5379
2019-04-20T00:00:16.848Z,90.6416
2019-04-20T00:00:23.176Z,90.7988
2019-04-20T00:00:31.577Z,90.8934
2019-04-20T00:00:37.953Z,90.8034
2019-04-20T00:00:49.140Z,90.7881
2019-04-20T00:00:56.116Z,90.8019
2019-04-20T00:01:01.582Z,90.7927
2019-04-20T00:01:05.506Z,90.7469
2019-04-20T00:01:12.561Z,90.7118
2019-04-20T00:01:25.461Z,90.6935
2019-04-20T00:01:31.981Z,90.7790
2019-04-20T00:01:37.264Z,90.8156
2019-04-20T00:01:42.783Z,90.9209
2019-04-20T00:01:47.408Z,90.9499
2019-04-20T00:01:52.522Z,90.9072
2019-04-20T00:02:04.467Z,90.9270
2019-04-20T00:02:13.753Z,90.9773
2019-04-20T00:02:18.898Z,91.1971
2019-04-20T00:02:25.441Z,91.5221
2019-04-20T00:02:29.625Z,91.5984
2019-04-20T00:02:33.706Z,91.5862
2019-04-20T00:02:38.358Z,91.6686
2019-04-20T00:02:43.992Z,91.6396
2019-04-20T00:02:53.920Z,91.5938
2019-04-20T00:03:01.343Z,91.5663
2019-04-20T00:03:05.701Z,91.4656
2019-04-20T00:03:11.648Z,91.3603
2019-04-20T00:03:15.942Z,91.3329
2019-04-20T00:03:26.042Z,91.2154
2019-04-20T00:03:35.312Z,91.1513
2019-04-20T00:03:43.167Z,90.9850
2019-04-20T00:03:48.549Z,91.0445
2019-04-20T00:03:55.601Z,91.1833
2019-04-20T00:04:01.115Z,91.2963
2019-04-20T00:04:05.435Z,91.3069
2019-04-20T00:04:17.055Z,91.2688
2019-04-20T00:04:23.354Z,91.3741
2019-04-20T00:04:30.974Z,91.5618
2019-04-20T00:04:37.401Z,91.5587
2019-04-20T00:04:41.372Z,91.5068
2019-04-20T00:04:45.456Z,91.4885
2019-04-20T00:04:49.416Z,91.4351
2019-04-20T00:04:53.328Z,91.4260
2019-04-20T00:04:59.043Z,91.4290
2019-04-20T00:05:03.518Z,91.3878
2019-04-20T00:05:07.523Z,91.3924
2019-04-20T00:05:11.368Z,91.4763
2019-04-20T00:05:15.028Z,91.4672
2019-04-20T00:05:19.338Z,91.4153
2019-04-20T00:05:23.245Z,91.4214
2019-04-20T00:05:27.481Z,91.3603
2019-04-20T00:05:31.427Z,91.3924
2019-04-20T00:05:35.426Z,91.3939
2019-04-20T00:05:39.346Z,91.4061
2019-04-20T00:05:45.497Z,91.4168
2019-04-20T00:05:49.385Z,91.5023
2019-04-20T00:05:53.395Z,91.5862
2019-04-20T00:05:57.417Z,91.6411
2019-04-20T00:06:01.931Z,91.6625
2019-04-20T00:06:06.982Z,91.6640
2019-04-20T00:06:11.426Z,91.7586
2019-04-20T00:06:15.491Z,91.8181
2019-04-20T00:06:19.888Z,91.8822
2019-04-20T00:06:23.367Z,91.9112
2019-04-20T00:06:31.719Z,91.9432
2019-04-20T00:06:43.147Z,91.8914
2019-04-20T00:06:48.356Z,91.8471
2019-04-20T00:06:55.782Z,91.7998
2019-04-20T00:07:01.864Z,91.6594
2019-04-20T00:07:08.017Z,91.5999
2019-04-20T00:07:12.531Z,91.5297
2019-04-20T00:07:18.725Z,91.5480
2019-04-20T00:07:29.520Z,91.5023
2019-04-20T00:07:37.200Z,91.5068
2019-04-20T00:07:41.843Z,91.5023
2019-04-20T00:07:46.455Z,91.5480
2019-04-20T00:07:50.184Z,91.5572
2019-04-20T00:07:55.504Z,91.5862
2019-04-20T00:08:03.238Z,91.6304
2019-04-20T00:08:16.690Z,91.5755
2019-04-20T00:08:23.370Z,91.5023
2019-04-20T00:08:31.130Z,91.4427
2019-04-20T00:08:39.482Z,91.6304
2019-04-20T00:08:46.259Z,91.7952
2019-04-20T00:08:58.691Z,91.8151
2019-04-20T00:09:08.774Z,91.8471
2019-04-20T00:09:15.940Z,91.8059
2019-04-20T00:09:24.711Z,91.9234
2019-04-20T00:09:31.734Z,92.1950
2019-04-20T00:09:39.772Z,92.3491
2019-04-20T00:09:52.825Z,92.2805
2019-04-20T00:10:01.415Z,92.1263
2019-04-20T00:10:10.121Z,92.0653
2019-04-20T00:10:17.054Z,91.9600
2019-04-20T00:10:23.086Z,91.9097
2019-04-20T00:10:30.255Z,91.8959
2019-04-20T00:10:47.361Z,91.8334
2019-04-20T00:10:54.802Z,91.7281
2019-04-20T00:11:04.123Z,91.5709
2019-04-20T00:11:11.699Z,91.4305
2019-04-20T00:11:23.421Z,91.3664
2019-04-20T00:11:30.381Z,91.3832
2019-04-20T00:11:45.870Z,91.3710
2019-04-20T00:11:53.471Z,91.3115
2019-04-20T00:12:03.009Z,91.2459
2019-04-20T00:12:07.221Z,91.1284
2019-04-20T00:12:17.211Z,91.0307
2019-04-20T00:12:22.852Z,90.8309
2019-04-20T00:12:37.369Z,90.7469
2019-04-20T00:12:51.032Z,90.6508
2019-04-20T00:12:59.734Z,90.4677
2019-04-20T00:13:05.894Z,90.4402
2019-04-20T00:13:16.637Z,90.4372
2019-04-20T00:13:21.565Z,90.4265
2019-04-20T00:13:32.126Z,90.4356
2019-04-20T00:13:40.696Z,90.4768
2019-04-20T00:13:49.777Z,90.5226
2019-04-20T00:13:54.930Z,90.5837
2019-04-20T00:14:03.838Z,90.7073
2019-04-20T00:14:10.916Z,90.9590
2019-04-20T00:14:19.291Z,91.1192
2019-04-20T00:14:27.859Z,91.2200
2019-04-20T00:14:35.455Z,91.1864
2019-04-20T00:14:42.407Z,91.1589
2019-04-20T00:14:48.058Z,91.1727
2019-04-20T00:14:52.437Z,91.2108
2019-04-20T00:14:56.932Z,91.2093
2019-04-20T00:15:02.873Z,91.2429
2019-04-20T00:15:08.993Z,91.1696
2019-04-20T00:15:13.334Z,91.0674
2019-04-20T00:15:17.561Z,90.9941
2019-04-20T00:15:21.733Z,90.9346
2019-04-20T00:15:26.620Z,90.8568
2019-04-20T00:15:30.622Z,90.7164
2019-04-20T00:15:34.625Z,90.6783
2019-04-20T00:15:38.939Z,90.5974
2019-04-20T00:15:43.015Z,90.5516
2019-04-20T00:15:47.306Z,90.5562
2019-04-20T00:15:51.447Z,90.5180
2019-04-20T00:15:56.025Z,90.5547
2019-04-20T00:16:01.905Z,90.6065
2019-04-20T00:16:06.187Z,90.6279
2019-04-20T00:16:10.573Z,90.6096
2019-04-20T00:16:14.981Z,90.6462
2019-04-20T00:16:19.339Z,90.6828
2019-04-20T00:16:25.063Z,90.6981
2019-04-20T00:16:29.385Z,90.7622
2019-04-20T00:16:33.803Z,90.8217
2019-04-20T00:16:39.823Z,90.8248
2019-04-20T00:16:44.345Z,90.8888
2019-04-20T00:16:48.467Z,90.9590
2019-04-20T00:16:52.675Z,91.0079
2019-04-20T00:16:56.868Z,91.0643
2019-04-20T00:17:01.330Z,91.0216
2019-04-20T00:17:05.418Z,90.9483
2019-04-20T00:17:10.021Z,90.9255
2019-04-20T00:17:15.815Z,90.8263
2019-04-20T00:17:19.963Z,90.7988
2019-04-20T00:17:25.028Z,90.7576
2019-04-20T00:17:30.541Z,90.7256
2019-04-20T00:17:39.333Z,90.7378
2019-04-20T00:17:48.595Z,90.7011
2019-04-20T00:17:57.167Z,90.6874
2019-04-20T00:18:06.238Z,90.7423
2019-04-20T00:18:13.155Z,90.7942
2019-04-20T00:18:16.997Z,90.8125
2019-04-20T00:18:24.873Z,90.7973
2019-04-20T00:18:36.865Z,90.7942
2019-04-20T00:18:45.902Z,90.8400
2019-04-20T00:18:53.173Z,90.7698
2019-04-20T00:19:00.762Z,90.8110
2019-04-20T00:19:07.630Z,90.7301
2019-04-20T00:19:21.747Z,90.5867
2019-04-20T00:19:31.331Z,90.4860
2019-04-20T00:19:37.476Z,90.5241
2019-04-20T00:19:45.390Z,90.5745
2019-04-20T00:19:53.804Z,90.6279
2019-04-20T00:19:59.378Z,90.5470
2019-04-20T00:20:13.375Z,90.3914
2019-04-20T00:20:20.782Z,90.2800
2019-04-20T00:20:30.643Z,90.3258
2019-04-20T00:20:36.908Z,90.3212
2019-04-20T00:20:43.833Z,90.3685
2019-04-20T00:20:51.415Z,90.3914
2019-04-20T00:21:00.268Z,90.4234
2019-04-20T00:21:11.014Z,90.4829
2019-04-20T00:21:16.444Z,90.5959
2019-04-20T00:21:22.553Z,90.6645
2019-04-20T00:21:28.999Z,90.6569
2019-04-20T00:21:34.419Z,90.6142
2019-04-20T00:21:46.926Z,90.6188
2019-04-20T00:21:57.747Z,90.6432
2019-04-20T00:22:01.962Z,90.6737
2019-04-20T00:22:10.168Z,90.6889
2019-04-20T00:22:16.940Z,90.8751
2019-04-20T00:22:24.681Z,90.9316
2019-04-20T00:22:39.308Z,91.0307
2019-04-20T00:22:46.073Z,91.1055
2019-04-20T00:22:51.973Z,91.2886
2019-04-20T00:22:58.182Z,91.4931
2019-04-20T00:23:03.495Z,91.5206
2019-04-20T00:23:14.642Z,91.5404
2019-04-20T00:23:22.868Z,91.7495
2019-04-20T00:23:33.707Z,91.7784
2019-04-20T00:23:39.894Z,91.6823
2019-04-20T00:23:47.738Z,91.6640
2019-04-20T00:23:53.130Z,91.6274
2019-04-20T00:24:01.122Z,91.5450
2019-04-20T00:24:13.604Z,91.4885
2019-04-20T00:24:21.707Z,91.4351
2019-04-20T00:24:30.202Z,91.3237
2019-04-20T00:24:37.215Z,91.3069
2019-04-20T00:24:43.930Z,91.3741
2019-04-20T00:24:50.517Z,91.3466
2019-04-20T00:25:04.278Z,91.3191
2019-04-20T00:25:11.918Z,91.2795
2019-04-20T00:25:19.153Z,91.3695
2019-04-20T00:25:39.535Z,91.6625
2019-04-20T00:25:49.789Z,91.8746
2019-04-20T00:25:53.178Z,91.8929
2019-04-20T00:26:02.870Z,91.8837
2019-04-20T00:26:07.700Z,91.8822
2019-04-20T00:26:19.444Z,91.8090
2019-04-20T00:26:27.348Z,91.6899
2019-04-20T00:26:56.346Z,91.6854
2019-04-20T00:27:04.767Z,91.7540
2019-04-20T00:27:22.049Z,91.8151
2019-04-20T00:27:25.973Z,92.0165
2019-04-20T00:27:32.978Z,91.8746
2019-04-20T00:27:37.179Z,92.0714
2019-04-20T00:27:43.357Z,92.1569
2019-04-20T00:27:50.232Z,92.1584
2019-04-20T00:27:59.551Z,92.2316
2019-04-20T00:28:08.552Z,92.2805
2019-04-20T00:28:16.100Z,92.4773
2019-04-20T00:28:25.012Z,92.5414
2019-04-20T00:28:33.905Z,92.6192
2019-04-20T00:28:45.657Z,92.6894
2019-04-20T00:28:50.763Z,92.6253
2019-04-20T00:29:02.308Z,92.5429
2019-04-20T00:29:16.063Z,92.5750
2019-04-20T00:29:21.288Z,92.4605
2019-04-20T00:29:29.720Z,92.3781
2019-04-20T00:29:40.731Z,92.4498
2019-04-20T00:29:47.935Z,92.5414
2019-04-20T00:29:54.748Z,92.4727
2019-04-20T00:30:04.271Z,92.4453
2019-04-20T00:30:15.552Z,92.3873
2019-04-20T00:30:28.247Z,92.4147
2019-04-20T00:30:32.451Z,92.3995
2019-04-20T00:30:40.100Z,92.4239
2019-04-20T00:30:51.776Z,92.4086
2019-04-20T00:30:58.957Z,92.4773
2019-04-20T00:31:09.788Z,92.5368
2019-04-20T00:31:12.431Z,92.6116
2019-04-20T00:31:23.245Z,92.7611
2019-04-20T00:31:30.751Z,92.8634
2019-04-20T00:31:42.125Z,92.9946
2019-04-20T00:31:51.390Z,93.1105
2019-04-20T00:31:56.685Z,93.2235
2019-04-20T00:32:02.595Z,93.1014
2019-04-20T00:32:12.555Z,92.9259
2019-04-20T00:32:19.915Z,92.8359
2019-04-20T00:32:37.691Z,92.7657
2019-04-20T00:32:45.486Z,92.6802
2019-04-20T00:32:53.304Z,92.6940
2019-04-20T00:33:00.860Z,92.6558
2019-04-20T00:33:07.749Z,92.5002
2019-04-20T00:33:21.602Z,92.3781
2019-04-20T00:33:33.038Z,92.3781
2019-04-20T00:33:38.864Z,92.4361
2019-04-20T00:33:48.398Z,92.4819
2019-04-20T00:33:53.773Z,92.5185
2019-04-20T00:34:02.375Z,92.5780
2019-04-20T00:34:11.564Z,92.6055
2019-04-20T00:34:18.092Z,92.7123
2019-04-20T00:34:24.609Z,92.7977
2019-04-20T00:34:33.172Z,92.8908
2019-04-20T00:34:39.001Z,92.9320
2019-04-20T00:34:47.113Z,92.9946
2019-04-20T00:34:54.014Z,92.9397
2019-04-20T00:34:59.940Z,92.8893
2019-04-20T00:35:06.194Z,92.9549
2019-04-20T00:35:12.324Z,92.9412
2019-04-20T00:35:16.892Z,93.0312
2019-04-20T00:35:21.463Z,93.1655
2019-04-20T00:35:27.110Z,93.1914
2019-04-20T00:35:31.446Z,93.1823
2019-04-20T00:35:35.917Z,93.1105
2019-04-20T00:35:40.391Z,92.9992
2019-04-20T00:35:46.238Z,92.8847
2019-04-20T00:35:50.434Z,92.7886
2019-04-20T00:35:54.865Z,92.7245
2019-04-20T00:35:59.399Z,92.6787
2019-04-20T00:36:05.270Z,92.6207
2019-04-20T00:36:10.091Z,92.5109
2019-04-20T00:36:15.985Z,92.3995
2019-04-20T00:36:22.100Z,92.3552
2019-04-20T00:36:27.280Z,92.3125
2019-04-20T00:36:32.885Z,92.2988
2019-04-20T00:36:37.485Z,92.3094
2019-04-20T00:36:41.571Z,92.2667
2019-04-20T00:36:47.329Z,92.3232
2019-04-20T00:36:51.925Z,92.3506
2019-04-20T00:36:56.370Z,92.3629
2019-04-20T00:37:00.420Z,92.2682
2019-04-20T00:37:05.412Z,92.2896
2019-04-20T00:37:12.831Z,92.2667
2019-04-20T00:37:17.424Z,92.2209
2019-04-20T00:37:21.357Z,92.2911
2019-04-20T00:37:25.474Z,92.2118
2019-04-20T00:37:29.738Z,92.2133
2019-04-20T00:37:35.935Z,92.2896
2019-04-20T00:37:40.567Z,92.3537
2019-04-20T00:37:44.556Z,92.3827
2019-04-20T00:37:48.794Z,92.4041
2019-04-20T00:37:52.887Z,92.4376
2019-04-20T00:37:57.408Z,92.4834
2019-04-20T00:38:01.257Z,92.5505
2019-04-20T00:38:05.644Z,92.7581
2019-04-20T00:38:09.832Z,92.9229
2019-04-20T00:38:14.381Z,93.0632
2019-04-20T00:38:18.069Z,93.2250
2019-04-20T00:38:25.998Z,93.4066
2019-04-20T00:38:36.545Z,93.6217
2019-04-20T00:38:46.276Z,93.6721
2019-04-20T00:38:53.702Z,93.5348
2019-04-20T00:39:02.636Z,93.5897
2019-04-20T00:39:10.897Z,93.4813
2019-04-20T00:39:17.235Z,93.4249
2019-04-20T00:39:23.849Z,93.4539
2019-04-20T00:39:28.309Z,93.5576
2019-04-20T00:39:32.391Z,93.5958
2019-04-20T00:39:36.090Z,93.7362
2019-04-20T00:39:40.593Z,93.7926
2019-04-20T00:39:44.746Z,93.8247
2019-04-20T00:39:50.804Z,93.8460
2019-04-20T00:39:55.968Z,93.8705
2019-04-20T00:40:01.549Z,93.8872
2019-04-20T00:40:05.739Z,93.9559
2019-04-20T00:40:09.867Z,93.9757
2019-04-20T00:40:15.076Z,94.0124
2019-04-20T00:40:19.496Z,94.0215
2019-04-20T00:40:23.705Z,94.0581
2019-04-20T00:40:28.464Z,94.0124
2019-04-20T00:40:32.686Z,93.9757
2019-04-20T00:40:37.297Z,94.0215
2019-04-20T00:40:41.332Z,94.0291
2019-04-20T00:40:48.912Z,93.9757
2019-04-20T00:40:59.771Z,94.0063
2019-04-20T00:41:07.578Z,94.0536
2019-04-20T00:41:15.983Z,93.9666
2019-04-20T00:41:23.005Z,93.9757
2019-04-20T00:41:29.612Z,94.0490
2019-04-20T00:41:40.713Z,94.0719
2019-04-20T00:41:50.959Z,94.1253
2019-04-20T00:41:56.245Z,94.1955
2019-04-20T00:42:04.407Z,94.0612
2019-04-20T00:42:12.850Z,93.9239
2019-04-20T00:42:19.858Z,93.7652
2019-04-20T00:42:34.099Z,93.6355
2019-04-20T00:42:42.224Z,93.3898
2019-04-20T00:42:50.796Z,93.2250
2019-04-20T00:42:57.118Z,93.0419
2019-04-20T00:43:04.578Z,92.9351
2019-04-20T00:43:08.710Z,92.8618
2019-04-20T00:43:19.621Z,92.7382
2019-04-20T00:43:28.287Z,92.6284
2019-04-20T00:43:35.353Z,92.6070
2019-04-20T00:43:42.072Z,92.5521
2019-04-20T00:43:47.162Z,92.4514
2019-04-20T00:43:51.369Z,92.3735
2019-04-20T00:43:58.857Z,92.3781
2019-04-20T00:44:12.234Z,92.3598
2019-04-20T00:44:22.075Z,92.2362
2019-04-20T00:44:28.091Z,92.1294
2019-04-20T00:44:35.887Z,92.0027
2019-04-20T00:44:43.802Z,91.8608
2019-04-20T00:44:56.310Z,91.8654
2019-04-20T00:45:06.778Z,91.9142
2019-04-20T00:45:15.391Z,91.9554
2019-04-20T00:45:23.500Z,92.0241
2019-04-20T00:45:30.582Z,92.2499
2019-04-20T00:45:44.926Z,92.3857
2019-04-20T00:45:51.783Z,92.5154
2019-04-20T00:46:04.848Z,92.5414
2019-04-20T00:46:09.129Z,92.5963
2019-04-20T00:46:22.173Z,92.5566
2019-04-20T00:46:31.249Z,92.4697
2019-04-20T00:46:39.685Z,92.5139
2019-04-20T00:46:51.179Z,92.5658
2019-04-20T00:47:01.869Z,92.7062
2019-04-20T00:47:08.437Z,92.8252
2019-04-20T00:47:15.887Z,92.9503
2019-04-20T00:47:30.475Z,92.9763
2019-04-20T00:47:37.344Z,92.9732
2019-04-20T00:47:41.895Z,93.0404
2019-04-20T00:47:51.250Z,93.0190
2019-04-20T00:47:59.724Z,92.9595
2019-04-20T00:48:06.290Z,92.9259
2019-04-20T00:48:22.535Z,92.9717
2019-04-20T00:48:31.554Z,93.0358
2019-04-20T00:48:37.429Z,93.1365
2019-04-20T00:48:46.353Z,93.1792
2019-04-20T00:48:55.101Z,93.1960
2019-04-20T00:49:08.822Z,93.0922
2019-04-20T00:49:20.726Z,93.0053
2019-04-20T00:49:27.089Z,92.7947
2019-04-20T00:49:34.939Z,92.6390
2019-04-20T00:49:46.123Z,92.5063
2019-04-20T00:49:52.741Z,92.5551
2019-04-20T00:50:01.126Z,92.5231
2019-04-20T00:50:15.765Z,92.5643
2019-04-20T00:50:27.022Z,92.5734
2019-04-20T00:50:36.720Z,92.5841
2019-04-20T00:50:40.608Z,92.6238
2019-04-20T00:50:57.491Z,92.6757
2019-04-20T00:51:14.827Z,92.6787
2019-04-20T00:51:23.936Z,92.7153
2019-04-20T00:51:37.637Z,92.8176
2019-04-20T00:51:39.354Z,92.7565
2019-04-20T00:51:46.638Z,92.8252
2019-04-20T00:51:51.096Z,92.8725
2019-04-20T00:52:17.170Z,92.8908
2019-04-20T00:52:23.737Z,92.9641
2019-04-20T00:52:27.667Z,92.9625
2019-04-20T00:52:35.702Z,92.9763
2019-04-20T00:52:44.755Z,93.0282
2019-04-20T00:52:46.984Z,92.9046
2019-04-20T00:52:54.361Z,92.8344
2019-04-20T00:53:02.187Z,92.7810
2019-04-20T00:53:06.736Z,92.7062
2019-04-20T00:53:17.097Z,92.6238
2019-04-20T00:53:26.165Z,92.5246
2019-04-20T00:53:34.211Z,92.5200
2019-04-20T00:53:39.702Z,92.5063
2019-04-20T00:53:48.389Z,92.4865
2019-04-20T00:53:55.899Z,92.5063
2019-04-20T00:54:02.563Z,92.5063
2019-04-20T00:54:07.355Z,92.5246
2019-04-20T00:54:11.539Z,92.5338
2019-04-20T00:54:14.408Z,92.6070
2019-04-20T00:54:18.089Z,92.6162
2019-04-20T00:54:24.224Z,92.6513
2019-04-20T00:54:28.453Z,92.6329
2019-04-20T00:54:32.547Z,92.6162
2019-04-20T00:54:36.906Z,92.5780
2019-04-20T00:54:41.241Z,92.5704
2019-04-20T00:54:45.511Z,92.5200
2019-04-20T00:54:49.499Z,92.5322
2019-04-20T00:54:53.941Z,92.5338
2019-04-20T00:55:00.004Z,92.5658
2019-04-20T00:55:04.380Z,92.5826
2019-04-20T00:55:08.350Z,92.6024
2019-04-20T00:55:12.793Z,92.5368
2019-04-20T00:55:17.481Z,92.5109
2019-04-20T00:55:21.508Z,92.5414
2019-04-20T00:55:25.254Z,92.5292
2019-04-20T00:55:29.383Z,92.4926
2019-04-20T00:55:33.800Z,92.4743
2019-04-20T00:55:38.568Z,92.4910
2019-04-20T00:55:42.326Z,92.4926
2019-04-20T00:55:46.384Z,92.5643
2019-04-20T00:55:50.800Z,92.5322
2019-04-20T00:55:55.544Z,92.5597
2019-04-20T00:55:59.560Z,92.6055
2019-04-20T00:56:05.412Z,92.5917
2019-04-20T00:56:09.971Z,92.6970
2019-04-20T00:56:14.370Z,92.7123
2019-04-20T00:56:18.672Z,92.7245
2019-04-20T00:56:22.639Z,92.7794
2019-04-20T00:56:26.393Z,92.8115
2019-04-20T00:56:30.934Z,92.9168
2019-04-20T00:56:37.074Z,93.0098
2019-04-20T00:56:41.557Z,93.0510
2019-04-20T00:56:45.470Z,93.1044
2019-04-20T00:56:49.865Z,93.0419
2019-04-20T00:57:06.610Z,93.1014
2019-04-20T00:57:13.280Z,93.1869
2019-04-20T00:57:22.330Z,93.1105
2019-04-20T00:57:34.046Z,93.1044
2019-04-20T00:57:41.568Z,93.1777
2019-04-20T00:57:47.671Z,93.2784
2019-04-20T00:57:56.394Z,93.3654
2019-04-20T00:58:09.378Z,93.5317
2019-04-20T00:58:17.308Z,93.6233
2019-04-20T00:58:24.513Z,93.6721
2019-04-20T00:58:33.580Z,93.8933
2019-04-20T00:58:50.684Z,94.0566
2019-04-20T00:58:52.901Z,94.1909
2019-04-20T00:59:06.509Z,94.2550
2019-04-20T00:59:14.463Z,94.2229
2019-04-20T00:59:24.105Z,94.1161
2019-04-20T00:59:31.613Z,94.1222
2019-04-20T00:59:42.952Z,94.0383
2019-04-20T01:00:03.641Z,93.9742
2019-04-20T01:00:09.395Z,93.8964
2019-04-20T01:00:17.773Z,93.8888
2019-04-20T01:00:22.877Z,94.0673
2019-04-20T01:00:34.174Z,94.3038
2019-04-20T01:00:36.871Z,94.4411
2019-04-20T01:00:58.332Z,94.4427
2019-04-20T01:01:04.097Z,94.3740
2019-04-20T01:01:16.993Z,94.3038
2019-04-20T01:01:22.102Z,94.2596
2019-04-20T01:01:24.898Z,94.3267
2019-04-20T01:01:37.844Z,94.3603
2019-04-20T01:01:48.972Z,94.4381
2019-04-20T01:01:51.947Z,94.5190
2019-04-20T01:02:04.963Z,94.6426
2019-04-20T01:02:10.064Z,94.6059
2019-04-20T01:02:18.037Z,94.6105
2019-04-20T01:02:25.732Z,94.6258
2019-04-20T01:02:29.656Z,94.6883
2019-04-20T01:02:40.669Z,94.8363
2019-04-20T01:02:50.727Z,94.9859
2019-04-20T01:03:04.010Z,94.9142
2019-04-20T01:03:09.854Z,94.9142
2019-04-20T01:03:21.857Z,94.9874
2019-04-20T01:03:32.418Z,95.1095
2019-04-20T01:03:35.955Z,95.1156
2019-04-20T01:03:48.640Z,95.0271
2019-04-20T01:03:58.641Z,94.7982
2019-04-20T01:04:10.616Z,94.5235
2019-04-20T01:04:27.228Z,94.2122
2019-04-20T01:04:38.832Z,94.1619
2019-04-20T01:04:50.875Z,94.1711
2019-04-20T01:04:56.570Z,94.1863
2019-04-20T01:05:04.383Z,94.1115
2019-04-20T01:05:15.189Z,94.0307
2019-04-20T01:05:18.582Z,93.8918
2019-04-20T01:05:23.156Z,93.8643
2019-04-20T01:05:35.433Z,93.8415
2019-04-20T01:05:53.636Z,93.8064
2019-04-20T01:06:00.808Z,93.8064
2019-04-20T01:06:07.909Z,93.8293
2019-04-20T01:06:17.626Z,93.9101
2019-04-20T01:06:24.757Z,93.9376
2019-04-20T01:06:34.115Z,93.9895
2019-04-20T01:06:38.326Z,93.8918
2019-04-20T01:06:49.216Z,93.8064
2019-04-20T01:06:53.990Z,93.7820
2019-04-20T01:07:01.219Z,93.7560
2019-04-20T01:07:09.640Z,93.6645
2019-04-20T01:07:23.291Z,93.6355
2019-04-20T01:07:26.337Z,93.5073
2019-04-20T01:07:35.046Z,93.3486
2019-04-20T01:07:42.000Z,93.2281
2019-04-20T01:07:50.298Z,93.1960
2019-04-20T01:07:58.116Z,93.1685
2019-04-20T01:08:04.629Z,93.1365
2019-04-20T01:08:11.305Z,93.1777
2019-04-20T01:08:15.327Z,93.2113
2019-04-20T01:08:19.531Z,93.1777
2019-04-20T01:08:23.362Z,93.1517
2019-04-20T01:08:27.503Z,93.1426
2019-04-20T01:08:31.808Z,93.1609
2019-04-20T01:08:36.382Z,93.1655
2019-04-20T01:08:42.214Z,93.1472
2019-04-20T01:08:48.472Z,93.1838
2019-04-20T01:08:52.883Z,93.2189
2019-04-20T01:08:57.463Z,93.2708
2019-04-20T01:09:01.868Z,93.2708
2019-04-20T01:09:07.422Z,93.2876
2019-04-20T01:09:11.954Z,93.3379
2019-04-20T01:09:16.495Z,93.3532
2019-04-20T01:09:20.442Z,93.4020
2019-04-20T01:09:24.642Z,93.4432
2019-04-20T01:09:28.804Z,93.4020
2019-04-20T01:09:33.501Z,93.4890
2019-04-20T01:09:39.138Z,93.5409
2019-04-20T01:09:43.434Z,93.5668
2019-04-20T01:09:47.819Z,93.6416
2019-04-20T01:09:52.004Z,93.6324
2019-04-20T01:09:56.479Z,93.6599
2019-04-20T01:10:00.489Z,93.6828
2019-04-20T01:10:04.967Z,93.7285
2019-04-20T01:10:09.509Z,93.7560
2019-04-20T01:10:13.477Z,93.7331
2019-04-20T01:10:17.431Z,93.7285
2019-04-20T01:10:21.619Z,93.7682
2019-04-20T01:10:28.318Z,93.7606
2019-04-20T01:10:38.491Z,93.7774
2019-04-20T01:10:47.199Z,93.7331
2019-04-20T01:10:54.827Z,93.7560
2019-04-20T01:11:02.343Z,93.8598
2019-04-20T01:11:06.327Z,93.8689
2019-04-20T01:11:10.643Z,93.8506
2019-04-20T01:11:16.754Z,93.8918
2019-04-20T01:11:29.997Z,93.9117
2019-04-20T01:11:38.419Z,93.9025
2019-04-20T01:11:45.159Z,93.8735
2019-04-20T01:11:51.659Z,93.6919
2019-04-20T01:11:56.640Z,93.6584
2019-04-20T01:12:05.074Z,93.6629
2019-04-20T01:12:17.287Z,93.6278
2019-04-20T01:12:22.964Z,93.5683
2019-04-20T01:12:31.319Z,93.6095
2019-04-20T01:12:38.728Z,93.5439
2019-04-20T01:12:45.710Z,93.5409
2019-04-20T01:12:52.075Z,93.5439
2019-04-20T01:13:06.828Z,93.5409
2019-04-20T01:13:13.781Z,93.4890
2019-04-20T01:13:20.348Z,93.4401
2019-04-20T01:13:27.185Z,93.4066
2019-04-20T01:13:42.178Z,93.4157
2019-04-20T01:13:48.801Z,93.5714
2019-04-20T01:13:55.366Z,93.6263
2019-04-20T01:14:04.387Z,93.7011
2019-04-20T01:14:12.267Z,93.8155
2019-04-20T01:14:26.079Z,93.9971
2019-04-20T01:14:32.808Z,94.0795
2019-04-20T01:14:44.676Z,94.1360
2019-04-20T01:14:51.428Z,94.1817
2019-04-20T01:14:58.721Z,94.2031
2019-04-20T01:15:06.290Z,94.2580
2019-04-20T01:15:22.420Z,94.3358
2019-04-20T01:15:28.132Z,94.3679
2019-04-20T01:15:38.661Z,94.4228
2019-04-20T01:15:47.367Z,94.4244
2019-04-20T01:15:55.348Z,94.4183
2019-04-20T01:16:03.517Z,94.3725
2019-04-20T01:16:14.655Z,94.3816
2019-04-20T01:16:25.728Z,94.2672
2019-04-20T01:16:33.590Z,94.1817
2019-04-20T01:16:41.776Z,93.9437
2019-04-20T01:16:47.302Z,93.6446
2019-04-20T01:16:56.962Z,93.3806
2019-04-20T01:17:07.179Z,93.0922
2019-04-20T01:17:11.968Z,92.9534
2019-04-20T01:17:16.290Z,92.9412
2019-04-20T01:17:20.394Z,92.9778
2019-04-20T01:17:24.361Z,92.8893
2019-04-20T01:17:28.869Z,92.8084
2019-04-20T01:17:32.329Z,92.8405
2019-04-20T01:17:37.787Z,92.8542
2019-04-20T01:17:45.869Z,92.8481
2019-04-20T01:17:49.465Z,92.8954
2019-04-20T01:17:53.622Z,92.8389
2019-04-20T01:17:57.858Z,92.8344
2019-04-20T01:18:02.368Z,92.7977
2019-04-20T01:18:07.393Z,92.7398
2019-04-20T01:18:14.049Z,92.6558
2019-04-20T01:18:19.360Z,92.5689
2019-04-20T01:18:23.316Z,92.5521
2019-04-20T01:18:27.599Z,92.5322
2019-04-20T01:18:30.391Z,92.4743
2019-04-20T01:18:33.869Z,92.4681
2019-04-20T01:18:36.869Z,92.4681
2019-04-20T01:18:39.546Z,92.4926
2019-04-20T01:18:43.751Z,92.5246
2019-04-20T01:18:51.386Z,92.6925
2019-04-20T01:18:56.949Z,92.6619
2019-04-20T01:19:02.055Z,92.8222
2019-04-20T01:19:06.974Z,92.9259
2019-04-20T01:19:11.409Z,93.0282
2019-04-20T01:19:18.860Z,93.0877
2019-04-20T01:19:23.531Z,93.1228
2019-04-20T01:19:27.348Z,93.0968
2019-04-20T01:19:31.320Z,93.1548
2019-04-20T01:19:35.533Z,93.1517
2019-04-20T01:19:39.569Z,93.1609
2019-04-20T01:19:43.305Z,93.2189
2019-04-20T01:19:48.894Z,93.2204
2019-04-20T01:19:56.486Z,93.2601
2019-04-20T01:20:00.510Z,93.3425
2019-04-20T01:20:05.019Z,93.3852
2019-04-20T01:20:09.359Z,93.4340
2019-04-20T01:20:14.378Z,93.4752
2019-04-20T01:20:18.530Z,93.4493
2019-04-20T01:20:22.601Z,93.5592
2019-04-20T01:20:30.499Z,93.6263
2019-04-20T01:20:34.548Z,93.6370
2019-04-20T01:20:38.906Z,93.6492
2019-04-20T01:20:45.131Z,93.6629
2019-04-20T01:20:49.451Z,93.7240
2019-04-20T01:20:53.629Z,93.7194
2019-04-20T01:21:04.881Z,93.7377
2019-04-20T01:21:13.033Z,93.8094
2019-04-20T01:21:19.865Z,93.9254
2019-04-20T01:21:27.108Z,93.9574
2019-04-20T01:21:35.052Z,94.0261
2019-04-20T01:21:44.914Z,94.0398
2019-04-20T01:21:54.833Z,93.9895
2019-04-20T01:22:03.652Z,93.9559
2019-04-20T01:22:10.728Z,93.9437
2019-04-20T01:22:18.469Z,93.9559
2019-04-20T01:22:27.264Z,93.9284
2019-04-20T01:22:40.306Z,94.0032
2019-04-20T01:22:50.505Z,94.0124
2019-04-20T01:22:59.493Z,94.0627
2019-04-20T01:23:07.462Z,94.1115
2019-04-20T01:23:14.019Z,94.3175
2019-04-20T01:23:21.295Z,94.5235
2019-04-20T01:23:37.563Z,94.5602
2019-04-20T01:23:43.812Z,94.6990
2019-04-20T01:23:51.223Z,94.8714
2019-04-20T01:23:58.616Z,95.0332
2019-04-20T01:24:07.879Z,95.1782
2019-04-20T01:24:20.014Z,95.2056
2019-04-20T01:24:29.165Z,95.1476
2019-04-20T01:24:35.319Z,94.9035
2019-04-20T01:24:43.239Z,94.4518
2019-04-20T01:24:50.352Z,94.2672
2019-04-20T01:24:56.603Z,94.1115
2019-04-20T01:25:12.402Z,94.0841
2019-04-20T01:25:22.061Z,94.1390
2019-04-20T01:25:30.292Z,94.2275
2019-04-20T01:25:35.996Z,94.3633
2019-04-20T01:25:43.643Z,94.3908
2019-04-20T01:25:56.877Z,94.3465
2019-04-20T01:26:04.007Z,94.2946
2019-04-20T01:26:11.523Z,94.1985
2019-04-20T01:26:19.178Z,94.1314
2019-04-20T01:26:24.933Z,94.0795
2019-04-20T01:26:31.274Z,94.0581
2019-04-20T01:26:42.031Z,94.0841
2019-04-20T01:26:50.570Z,94.1482
2019-04-20T01:26:57.961Z,94.0291
2019-04-20T01:27:05.182Z,93.8293
2019-04-20T01:27:29.602Z,93.6309
2019-04-20T01:27:35.009Z,93.6812
2019-04-20T01:27:42.142Z,93.7224
2019-04-20T01:27:50.155Z,93.7362